• Join FlightAware (Why Join?)
  • Login
  • US Flag 
07:45PM EDT


 

Airport Tracker/Info


-or-


 

Live Flight TrackerFlight Track Log ✈ SWA3294 ✈ 13-Apr-2013 ✈ KATL - KBWI

Flight Track Log - Related Links

Times and Time Zones

All times are in EDT time to prevent confusion due to time zone crossing. See the SWA3294 flight status page for this flight to view local times or setup timezone preferences in your user account.

Time Position Orientation Groundspeed Altitude Reporting Facility
EDT Latitude Longitude Course Direction KTS MPH feet Rate Location/Type
06:21AM 33.6500 -84.4667 270° West 161 185 2,600  Level Atlanta TRACON
06:22AM 33.6500 -84.5167 270° West 209 241 5,200 2,940 Climbing Atlanta TRACON
06:23AM 33.7000 -84.5500 331° Northwest 238 274 8,200 2,520 Climbing Atlanta TRACON
06:25AM 33.7542 -84.3636 71° East 314 361 12,800 2,460 Climbing Atlanta Center
06:26AM 33.7817 -84.2536 73° East 333 383 15,700 3,000 Climbing Atlanta Center
06:27AM 33.8172 -84.1289 71° East 373 429 18,900 2,940 Climbing Atlanta Center
06:28AM 33.8528 -83.9989 72° East 397 457 21,600 2,040 Climbing Atlanta Center
06:29AM 33.8839 -83.8786 73° East 408 470 23,000 1,440 Climbing Atlanta Center
06:30AM 33.9211 -83.7408 72° East 421 484 24,500 1,800 Climbing Atlanta Center
06:31AM 33.9897 -83.6228 55° Northeast 421 484 26,600 1,980 Climbing Atlanta Center
06:32AM 34.0644 -83.4972 54° Northeast 437 503 28,500 1,800 Climbing Atlanta Center
06:33AM 34.1472 -83.3736 51° Northeast 468 539 30,300 1,680 Climbing Atlanta Center
06:34AM 34.2278 -83.2397 54° Northeast 481 554 31,900 1,740 Climbing Atlanta Center
06:35AM 34.3103 -83.1058 53° Northeast 491 565 33,800 1,740 Climbing Atlanta Center
06:36AM 34.3969 -82.9714 52° Northeast 499 574 35,400 1,500 Climbing Atlanta Center
06:37AM 34.4853 -82.8192 55° Northeast 505 581 36,900 780 Climbing Atlanta Center
06:38AM 34.5714 -82.6817 53° Northeast 510 587 37,000  Climbing Atlanta Center
06:39AM 34.6556 -82.5489 52° Northeast 505 581 37,000  Level Atlanta Center
06:40AM 34.7394 -82.4108 53° Northeast 505 581 37,000  Level Atlanta Center
06:41AM 34.8250 -82.2753 52° Northeast 505 581 37,000  Level Atlanta Center
06:42AM 34.9006 -82.1494 54° Northeast 510 587 37,000  Level Atlanta Center
06:43AM 34.9919 -81.9978 54° Northeast 505 581 37,000  Level Atlanta Center
06:44AM 35.0708 -81.8614 55° Northeast 505 581 37,000  Level Atlanta Center
06:45AM 35.1475 -81.7144 57° Northeast 510 587 37,000  Level Atlanta Center
06:46AM 35.2239 -81.5700 57° Northeast 510 587 37,000  Level Atlanta Center
06:47AM 35.3003 -81.4203 58° Northeast 515 593 37,000  Level Atlanta Center
06:48AM 35.3764 -81.2750 57° Northeast 515 593 37,000  Level Atlanta Center
06:49AM 35.4542 -81.1219 58° Northeast 515 593 37,000  Level Atlanta Center
06:50AM 35.5339 -80.9739 56° Northeast 515 593 37,000  Level Atlanta Center
06:51AM 35.6114 -80.8253 57° Northeast 515 593 37,000  Level Atlanta Center
06:52AM 35.6889 -80.6764 57° Northeast 515 593 37,000  Level Atlanta Center
06:54AM 35.8072 -80.4456 58° Northeast 521 600 37,000  Level Washington Center
06:55AM 35.8819 -80.3014 57° Northeast 513 590 37,000  Level Washington Center
06:56AM 35.9589 -80.1469 58° Northeast 508 585 37,000  Level Washington Center
06:57AM 36.0331 -80.0047 57° Northeast 509 586 37,000  Level Washington Center
06:58AM 36.1156 -79.8578 55° Northeast 509 586 37,000  Level Washington Center
06:59AM 36.1981 -79.7078 56° Northeast 514 592 37,000  Level Washington Center
07:00AM 36.2800 -79.5653 54° Northeast 514 592 37,000  Level Washington Center
07:01AM 36.3639 -79.4197 54° Northeast 514 592 37,000  Level Washington Center
07:02AM 36.4439 -79.2714 56° Northeast 514 592 37,000 -600 Level Washington Center
07:03AM 36.5256 -79.1228 56° Northeast 514 592 35,800 -2,400 Descending Washington Center
07:04AM 36.6089 -78.9789 54° Northeast 514 592 32,300 -3,000 Descending Washington Center
07:05AM 36.6817 -78.8422 56° Northeast 514 592 29,800 -1,680 Descending Washington Center
07:06AM 36.7606 -78.7006 55° Northeast 514 592 29,000 -420 Descending Washington Center
07:07AM 36.8411 -78.5636 54° Northeast 506 582 29,000  Level Washington Center
07:08AM 36.9564 -78.4589 36° Northeast 467 537 29,000  Level Washington Center
07:09AM 37.0586 -78.3636 37° Northeast 460 529 29,000  Level Washington Center
07:10AM 37.1672 -78.2686 35° Northeast 465 535 29,000  Level Washington Center
07:11AM 37.2653 -78.1781 36° Northeast 475 547 29,000  Level Washington Center
07:12AM 37.3778 -78.0772 35° Northeast 464 534 29,000  Level Washington Center
07:13AM 37.4842 -77.9761 37° Northeast 469 540 29,000 -900 Level Washington Center
07:14AM 37.5906 -77.8797 36° Northeast 469 540 27,300 -2,100 Descending Washington Center
07:15AM 37.6922 -77.7831 37° Northeast 464 534 24,800 -2,160 Descending Washington Center
07:16AM 37.7942 -77.6914 35° Northeast 458 527 23,000 -900 Descending Washington Center
07:17AM 37.8917 -77.5994 37° Northeast 445 512 23,000  Level Washington Center
07:18AM 37.9892 -77.5072 37° Northeast 440 506 23,000 -360 Level Washington Center
07:19AM 38.0822 -77.4200 36° Northeast 440 506 22,300 -1,500 Descending Washington Center
07:20AM 38.1708 -77.3375 36° Northeast 435 501 20,000 -2,340 Descending Washington Center
07:21AM 38.2661 -77.2497 36° Northeast 429 494 17,700 -2,340 Descending Washington Center
07:22AM 38.3528 -77.1644 38° Northeast 411 473 15,400 -1,920 Descending Washington Center
07:23AM 38.4372 -77.0708 41° Northeast 404 465 13,900 -1,800 Descending Washington Center
07:24AM 38.5156 -76.9742 44° Northeast 390 449 11,800 -1,080 Descending Washington Center
07:25AM 38.6022 -76.8775 41° Northeast 376 433 11,800 -900 Level Washington Center
07:26AM 38.6614 -76.8014 45° Northeast 359 413 10,100 -1,440 Descending Washington Center
07:27AM 38.7183 -76.7172 49° Northeast 326 375 9,000 -1,320 Descending Washington Center
07:28AM 38.7608 -76.6219 60° Northeast 311 358 7,500 -1,500 Descending Washington Center
07:29AM 38.8000 -76.5167 64° Northeast 290 334 5,900 -1,200 Descending Potomac TRACON
07:30AM 38.8667 -76.4667 30° Northeast 260 299 5,000 -480 Descending Potomac TRACON
07:31AM 38.9333 -76.4833 349° North 196 226 5,000  Level Potomac TRACON
07:32AM 38.9667 -76.5000 339° North 164 189 5,000 -600 Level Potomac TRACON
07:33AM 39.0167 -76.5167 345° North 159 183 4,000 -1,200 Descending Potomac TRACON
07:34AM 39.0500 -76.5500 322° Northwest 157 181 2,800 -840 Descending Potomac TRACON
07:35AM 39.0833 -76.5833 322° Northwest 156 180 2,400 -660 Descending Potomac TRACON
07:36AM 39.1167 -76.6167 322° Northwest 133 153 1,500 -840 Descending Potomac TRACON
07:37AM 39.1333 -76.6333 322° Northwest 122 140 800 -720 Descending Potomac TRACON
07:39AM 39.1667 -76.6667 339° North  Level FlightAware Approximate
07:46AM 39.1754 -76.6683 339° North  Level Estimated
07:47AM 39.1754 -76.6683 339° North  Level Estimated
07:48AM 39.1754 -76.6683 339° North  Level Estimated